sensor_id;sensor_type;location;lat;lon;timestamp;pressure;altitude;pressure_sealevel;temperature;humidity
46583;BME280;32309;48.858;8.252;2024-03-17T00:00:25;101088.00;;;8.41;88.96
46583;BME280;32309;48.858;8.252;2024-03-17T00:02:25;101093.44;;;8.33;89.82
46583;BME280;32309;48.858;8.252;2024-03-17T00:04:25;101092.53;;;8.35;89.06
46583;BME280;32309;48.858;8.252;2024-03-17T00:06:27;101090.22;;;8.27;89.04
46583;BME280;32309;48.858;8.252;2024-03-17T00:08:31;101086.00;;;8.24;90.20
46583;BME280;32309;48.858;8.252;2024-03-17T00:10:31;101086.06;;;8.23;91.06
46583;BME280;32309;48.858;8.252;2024-03-17T00:12:32;101078.31;;;8.23;91.05
46583;BME280;32309;48.858;8.252;2024-03-17T00:14:36;101084.28;;;8.25;90.36
46583;BME280;32309;48.858;8.252;2024-03-17T00:16:37;101088.66;;;8.23;89.51
46583;BME280;32309;48.858;8.252;2024-03-17T00:18:37;101081.97;;;8.17;90.11
46583;BME280;32309;48.858;8.252;2024-03-17T00:20:37;101087.13;;;8.17;90.57
46583;BME280;32309;48.858;8.252;2024-03-17T00:22:40;101083.59;;;8.20;90.77
46583;BME280;32309;48.858;8.252;2024-03-17T00:24:41;101080.94;;;8.21;90.53
46583;BME280;32309;48.858;8.252;2024-03-17T00:26:46;101075.84;;;8.20;90.39
46583;BME280;32309;48.858;8.252;2024-03-17T00:28:47;101074.09;;;8.20;90.52
46583;BME280;32309;48.858;8.252;2024-03-17T00:30:50;101069.13;;;8.14;90.80
46583;BME280;32309;48.858;8.252;2024-03-17T00:32:51;101065.59;;;8.16;90.55
46583;BME280;32309;48.858;8.252;2024-03-17T00:34:51;101059.59;;;8.16;89.95
46583;BME280;32309;48.858;8.252;2024-03-17T00:36:53;101060.56;;;8.13;90.18
46583;BME280;32309;48.858;8.252;2024-03-17T00:38:53;101069.25;;;8.11;89.71
46583;BME280;32309;48.858;8.252;2024-03-17T00:40:53;101059.13;;;8.05;90.04
46583;BME280;32309;48.858;8.252;2024-03-17T00:43:04;101061.88;;;8.00;90.41
46583;BME280;32309;48.858;8.252;2024-03-17T00:45:04;101061.88;;;8.00;89.84
46583;BME280;32309;48.858;8.252;2024-03-17T00:47:09;101055.84;;;7.99;89.64
46583;BME280;32309;48.858;8.252;2024-03-17T00:49:09;101060.31;;;7.96;89.69
46583;BME280;32309;48.858;8.252;2024-03-17T00:51:12;101052.59;;;7.94;90.09
46583;BME280;32309;48.858;8.252;2024-03-17T00:53:13;101050.00;;;7.94;89.93
46583;BME280;32309;48.858;8.252;2024-03-17T00:55:14;101053.66;;;7.89;89.86
46583;BME280;32309;48.858;8.252;2024-03-17T00:57:14;101048.66;;;7.84;89.45
46583;BME280;32309;48.858;8.252;2024-03-17T00:59:18;101055.66;;;7.80;89.10
46583;BME280;32309;48.858;8.252;2024-03-17T01:01:19;101050.59;;;7.77;89.23
46583;BME280;32309;48.858;8.252;2024-03-17T01:03:22;101047.22;;;7.75;89.66
46583;BME280;32309;48.858;8.252;2024-03-17T01:05:39;101048.31;;;7.68;90.05
46583;BME280;32309;48.858;8.252;2024-03-17T01:07:42;101062.25;;;7.62;89.71
46583;BME280;32309;48.858;8.252;2024-03-17T01:09:42;101056.16;;;7.65;90.75
46583;BME280;32309;48.858;8.252;2024-03-17T01:11:42;101056.94;;;7.67;90.47
46583;BME280;32309;48.858;8.252;2024-03-17T01:13:45;101042.41;;;7.64;91.07
46583;BME280;32309;48.858;8.252;2024-03-17T01:15:50;101046.63;;;7.67;89.94
46583;BME280;32309;48.858;8.252;2024-03-17T01:17:51;101039.78;;;7.66;88.16
46583;BME280;32309;48.858;8.252;2024-03-17T01:19:55;101041.13;;;7.51;89.16
46583;BME280;32309;48.858;8.252;2024-03-17T01:21:55;101031.75;;;7.48;90.85
46583;BME280;32309;48.858;8.252;2024-03-17T01:23:58;101029.00;;;7.53;91.12
46583;BME280;32309;48.858;8.252;2024-03-17T01:25:58;101025.53;;;7.54;90.06
46583;BME280;32309;48.858;8.252;2024-03-17T01:27:59;101027.19;;;7.57;90.89
46583;BME280;32309;48.858;8.252;2024-03-17T01:30:02;101028.06;;;7.56;90.37
46583;BME280;32309;48.858;8.252;2024-03-17T01:32:10;101027.94;;;7.60;90.08
46583;BME280;32309;48.858;8.252;2024-03-17T01:34:11;101021.81;;;7.63;89.08
46583;BME280;32309;48.858;8.252;2024-03-17T01:36:14;101024.34;;;7.64;89.80
46583;BME280;32309;48.858;8.252;2024-03-17T01:38:18;101015.81;;;7.62;89.62
46583;BME280;32309;48.858;8.252;2024-03-17T01:40:18;101007.19;;;7.63;89.85
46583;BME280;32309;48.858;8.252;2024-03-17T01:42:21;101006.34;;;7.63;89.28
46583;BME280;32309;48.858;8.252;2024-03-17T01:44:22;101009.75;;;7.63;88.70
46583;BME280;32309;48.858;8.252;2024-03-17T01:46:23;101002.03;;;7.63;89.51
46583;BME280;32309;48.858;8.252;2024-03-17T01:48:24;101002.97;;;7.61;89.32
46583;BME280;32309;48.858;8.252;2024-03-17T01:50:26;100997.84;;;7.59;88.03
46583;BME280;32309;48.858;8.252;2024-03-17T01:52:34;100997.16;;;7.54;88.07
46583;BME280;32309;48.858;8.252;2024-03-17T01:54:34;100999.06;;;7.49;88.00
46583;BME280;32309;48.858;8.252;2024-03-17T01:56:34;101000.09;;;7.43;89.85
46583;BME280;32309;48.858;8.252;2024-03-17T01:58:35;100996.72;;;7.41;89.87
46583;BME280;32309;48.858;8.252;2024-03-17T02:00:37;100990.03;;;7.36;90.92
46583;BME280;32309;48.858;8.252;2024-03-17T02:02:38;100994.25;;;7.38;90.49
46583;BME280;32309;48.858;8.252;2024-03-17T02:04:42;100992.44;;;7.40;90.33
46583;BME280;32309;48.858;8.252;2024-03-17T02:06:43;101001.00;;;7.42;88.85
46583;BME280;32309;48.858;8.252;2024-03-17T02:08:49;100990.78;;;7.39;88.29
46583;BME280;32309;48.858;8.252;2024-03-17T02:10:57;100985.88;;;7.31;88.23
46583;BME280;32309;48.858;8.252;2024-03-17T02:13:04;100979.31;;;7.21;88.43
46583;BME280;32309;48.858;8.252;2024-03-17T02:15:05;100975.22;;;7.15;89.35
46583;BME280;32309;48.858;8.252;2024-03-17T02:17:09;100977.88;;;7.12;90.91
46583;BME280;32309;48.858;8.252;2024-03-17T02:19:09;100976.16;;;7.13;89.95
46583;BME280;32309;48.858;8.252;2024-03-17T02:21:10;100973.63;;;7.11;90.39
46583;BME280;32309;48.858;8.252;2024-03-17T02:23:18;100982.31;;;7.09;90.34
46583;BME280;32309;48.858;8.252;2024-03-17T02:25:18;100982.31;;;7.09;90.00
46583;BME280;32309;48.858;8.252;2024-03-17T02:27:21;100973.81;;;7.05;89.50
46583;BME280;32309;48.858;8.252;2024-03-17T02:29:21;100980.75;;;7.03;90.17
46583;BME280;32309;48.858;8.252;2024-03-17T02:31:22;100984.31;;;6.99;90.81
46583;BME280;32309;48.858;8.252;2024-03-17T02:33:25;100978.31;;;6.98;90.60
46583;BME280;32309;48.858;8.252;2024-03-17T02:35:26;100974.09;;;6.96;90.68
46583;BME280;32309;48.858;8.252;2024-03-17T02:39:41;100980.78;;;7.02;91.14
46583;BME280;32309;48.858;8.252;2024-03-17T02:41:47;100985.88;;;7.03;91.11
46583;BME280;32309;48.858;8.252;2024-03-17T02:43:47;100988.41;;;7.05;90.84
46583;BME280;32309;48.858;8.252;2024-03-17T02:45:48;100983.25;;;7.05;91.24
46583;BME280;32309;48.858;8.252;2024-03-17T02:47:48;100976.41;;;7.05;91.27
46583;BME280;32309;48.858;8.252;2024-03-17T02:49:50;100970.34;;;7.06;91.41
46583;BME280;32309;48.858;8.252;2024-03-17T02:51:52;100977.22;;;7.06;91.08
46583;BME280;32309;48.858;8.252;2024-03-17T02:53:54;100978.09;;;7.06;91.21
46583;BME280;32309;48.858;8.252;2024-03-17T02:55:54;100978.09;;;7.05;91.17
46583;BME280;32309;48.858;8.252;2024-03-17T02:57:54;100976.28;;;7.08;90.86
46583;BME280;32309;48.858;8.252;2024-03-17T02:59:55;100977.91;;;7.11;90.80
46583;BME280;32309;48.858;8.252;2024-03-17T03:01:56;100972.78;;;7.11;91.20
46583;BME280;32309;48.858;8.252;2024-03-17T03:03:58;100971.81;;;7.13;91.21
46583;BME280;32309;48.858;8.252;2024-03-17T03:05:59;100966.72;;;7.12;91.40
46583;BME280;32309;48.858;8.252;2024-03-17T03:08:09;100975.28;;;7.12;91.32
46583;BME280;32309;48.858;8.252;2024-03-17T03:10:09;100975.28;;;7.14;90.79
46583;BME280;32309;48.858;8.252;2024-03-17T03:12:10;100966.56;;;7.16;90.56
46583;BME280;32309;48.858;8.252;2024-03-17T03:14:11;100964.91;;;7.15;90.55
46583;BME280;32309;48.858;8.252;2024-03-17T03:16:12;100974.41;;;7.13;89.75
46583;BME280;32309;48.858;8.252;2024-03-17T03:18:14;100971.19;;;7.07;90.20
46583;BME280;32309;48.858;8.252;2024-03-17T03:20:14;100966.97;;;7.04;90.44
46583;BME280;32309;48.858;8.252;2024-03-17T03:22:15;100968.78;;;7.00;90.74
46583;BME280;32309;48.858;8.252;2024-03-17T03:24:15;100963.75;;;6.97;91.17
46583;BME280;32309;48.858;8.252;2024-03-17T03:26:17;100967.16;;;6.98;91.64
46583;BME280;32309;48.858;8.252;2024-03-17T03:28:17;100969.72;;;6.98;91.32
46583;BME280;32309;48.858;8.252;2024-03-17T03:30:18;100964.56;;;6.98;91.28
46583;BME280;32309;48.858;8.252;2024-03-17T03:32:21;100950.81;;;6.99;91.23
46583;BME280;32309;48.858;8.252;2024-03-17T03:34:21;100955.03;;;7.02;91.37
46583;BME280;32309;48.858;8.252;2024-03-17T03:36:24;100946.41;;;7.03;90.50
46583;BME280;32309;48.858;8.252;2024-03-17T03:38:25;100949.22;;;6.95;90.55
46583;BME280;32309;48.858;8.252;2024-03-17T03:40:26;100948.47;;;6.91;90.36
46583;BME280;32309;48.858;8.252;2024-03-17T03:42:27;100954.53;;;6.90;91.05
46583;BME280;32309;48.858;8.252;2024-03-17T03:44:27;100964.03;;;6.88;90.53
46583;BME280;32309;48.858;8.252;2024-03-17T03:46:28;100966.59;;;6.88;90.74
46583;BME280;32309;48.858;8.252;2024-03-17T03:48:28;100963.16;;;6.89;91.14
46583;BME280;32309;48.858;8.252;2024-03-17T03:50:29;100961.41;;;6.90;90.57
46583;BME280;32309;48.858;8.252;2024-03-17T03:52:29;100964.09;;;6.87;90.91
46583;BME280;32309;48.858;8.252;2024-03-17T03:54:30;100966.72;;;6.83;90.56
46583;BME280;32309;48.858;8.252;2024-03-17T03:56:31;100967.59;;;6.84;90.88
46583;BME280;32309;48.858;8.252;2024-03-17T03:58:34;100969.47;;;6.79;90.99
46583;BME280;32309;48.858;8.252;2024-03-17T04:00:35;100976.38;;;6.78;91.20
46583;BME280;32309;48.858;8.252;2024-03-17T04:02:35;100970.28;;;6.81;91.38
46583;BME280;32309;48.858;8.252;2024-03-17T04:04:36;100965.84;;;6.85;91.32
46583;BME280;32309;48.858;8.252;2024-03-17T04:06:36;100959.81;;;6.86;89.62
46583;BME280;32309;48.858;8.252;2024-03-17T04:08:39;100965.16;;;6.79;89.32
46583;BME280;32309;48.858;8.252;2024-03-17T04:10:40;100962.78;;;6.72;89.76
46583;BME280;32309;48.858;8.252;2024-03-17T04:12:40;100964.53;;;6.71;91.43
46583;BME280;32309;48.858;8.252;2024-03-17T04:14:42;100967.22;;;6.68;90.99
46583;BME280;32309;48.858;8.252;2024-03-17T04:16:42;100960.28;;;6.70;90.52
46583;BME280;32309;48.858;8.252;2024-03-17T04:18:43;100957.69;;;6.70;90.70
46583;BME280;32309;48.858;8.252;2024-03-17T04:20:44;100961.13;;;6.71;91.49
46583;BME280;32309;48.858;8.252;2024-03-17T04:22:45;100967.16;;;6.70;91.59
46583;BME280;32309;48.858;8.252;2024-03-17T04:24:48;100973.19;;;6.69;91.09
46583;BME280;32309;48.858;8.252;2024-03-17T04:26:53;100959.44;;;6.70;91.46
46583;BME280;32309;48.858;8.252;2024-03-17T04:28:53;100965.41;;;6.70;91.33
46583;BME280;32309;48.858;8.252;2024-03-17T04:31:03;100959.34;;;6.73;91.08
46583;BME280;32309;48.858;8.252;2024-03-17T04:33:14;100961.13;;;6.71;90.70
46583;BME280;32309;48.858;8.252;2024-03-17T04:35:14;100957.69;;;6.70;91.01
46583;BME280;32309;48.858;8.252;2024-03-17T04:37:15;100958.63;;;6.68;91.26
46583;BME280;32309;48.858;8.252;2024-03-17T04:39:15;100956.97;;;6.66;91.36
46583;BME280;32309;48.858;8.252;2024-03-17T04:41:16;100950.13;;;6.65;91.71
46583;BME280;32309;48.858;8.252;2024-03-17T04:43:17;100957.09;;;6.62;91.49
46583;BME280;32309;48.858;8.252;2024-03-17T04:45:17;100959.78;;;6.59;90.81
46583;BME280;32309;48.858;8.252;2024-03-17T04:47:17;100958.97;;;6.57;90.96
46583;BME280;32309;48.858;8.252;2024-03-17T04:49:18;100959.09;;;6.52;91.26
46583;BME280;32309;48.858;8.252;2024-03-17T04:51:18;100965.09;;;6.53;91.15
46583;BME280;32309;48.858;8.252;2024-03-17T04:53:18;100965.19;;;6.49;90.93
46583;BME280;32309;48.858;8.252;2024-03-17T04:55:19;100961.72;;;6.50;91.11
46583;BME280;32309;48.858;8.252;2024-03-17T04:57:19;100964.34;;;6.49;90.98
46583;BME280;32309;48.858;8.252;2024-03-17T04:59:20;100960.94;;;6.48;91.69
46583;BME280;32309;48.858;8.252;2024-03-17T05:01:20;100957.53;;;6.48;91.82
46583;BME280;32309;48.858;8.252;2024-03-17T05:03:25;100964.53;;;6.43;91.35
46583;BME280;32309;48.858;8.252;2024-03-17T05:05:25;100962.91;;;6.39;91.55
46583;BME280;32309;48.858;8.252;2024-03-17T05:07:25;100954.41;;;6.37;91.13
46583;BME280;32309;48.858;8.252;2024-03-17T05:09:25;100960.59;;;6.31;91.81
46583;BME280;32309;48.858;8.252;2024-03-17T05:11:26;100959.72;;;6.30;91.38
46583;BME280;32309;48.858;8.252;2024-03-17T05:13:27;100959.00;;;6.25;91.27
46583;BME280;32309;48.858;8.252;2024-03-17T05:15:27;100954.72;;;6.26;91.38
46583;BME280;32309;48.858;8.252;2024-03-17T05:17:28;100955.59;;;6.25;90.83
46583;BME280;32309;48.858;8.252;2024-03-17T05:19:28;100954.75;;;6.24;90.74
46583;BME280;32309;48.858;8.252;2024-03-17T05:21:29;100953.13;;;6.20;90.00
46583;BME280;32309;48.858;8.252;2024-03-17T05:23:33;100949.22;;;6.07;90.95
46583;BME280;32309;48.858;8.252;2024-03-17T05:25:35;100953.66;;;6.02;89.76
46583;BME280;32309;48.858;8.252;2024-03-17T05:27:37;100948.66;;;5.95;90.63
46583;BME280;32309;48.858;8.252;2024-03-17T05:29:37;100949.53;;;5.94;89.73
46583;BME280;32309;48.858;8.252;2024-03-17T05:31:37;100943.78;;;5.86;91.24
46583;BME280;32309;48.858;8.252;2024-03-17T05:33:42;100945.47;;;5.86;90.26
46583;BME280;32309;48.858;8.252;2024-03-17T05:35:49;100940.34;;;5.86;89.80
46583;BME280;32309;48.858;8.252;2024-03-17T05:37:54;100949.78;;;5.85;89.22
46583;BME280;32309;48.858;8.252;2024-03-17T05:39:54;100939.66;;;5.79;90.97
46583;BME280;32309;48.858;8.252;2024-03-17T05:41:54;100950.81;;;5.78;91.74
46583;BME280;32309;48.858;8.252;2024-03-17T05:43:55;100948.16;;;5.82;90.35
46583;BME280;32309;48.858;8.252;2024-03-17T05:45:59;100953.28;;;5.82;90.94
46583;BME280;32309;48.858;8.252;2024-03-17T05:47:58;100953.28;;;5.82;90.65
46583;BME280;32309;48.858;8.252;2024-03-17T05:50:01;100948.16;;;5.82;90.71
46583;BME280;32309;48.858;8.252;2024-03-17T05:52:02;100956.63;;;5.86;90.30
46583;BME280;32309;48.858;8.252;2024-03-17T05:54:05;100957.47;;;5.87;90.42
46583;BME280;32309;48.858;8.252;2024-03-17T05:56:08;100954.00;;;5.88;89.03
46583;BME280;32309;48.858;8.252;2024-03-17T05:58:09;100957.59;;;5.82;90.68
46583;BME280;32309;48.858;8.252;2024-03-17T06:00:12;100954.16;;;5.81;88.90
46583;BME280;32309;48.858;8.252;2024-03-17T06:02:15;100956.03;;;5.76;90.05
46583;BME280;32309;48.858;8.252;2024-03-17T06:04:15;100960.38;;;5.74;88.97
46583;BME280;32309;48.858;8.252;2024-03-17T06:06:17;100962.38;;;5.63;88.45
46583;BME280;32309;48.858;8.252;2024-03-17T06:08:20;100969.44;;;5.55;90.65
46583;BME280;32309;48.858;8.252;2024-03-17T06:10:21;100956.59;;;5.55;89.55
46583;BME280;32309;48.858;8.252;2024-03-17T06:12:24;100960.13;;;5.50;89.34
46583;BME280;32309;48.858;8.252;2024-03-17T06:14:32;100959.41;;;5.45;90.97
46583;BME280;32309;48.858;8.252;2024-03-17T06:16:34;100965.31;;;5.49;89.53
46583;BME280;32309;48.858;8.252;2024-03-17T06:18:34;100960.22;;;5.46;90.32
46583;BME280;32309;48.858;8.252;2024-03-17T06:20:35;100955.13;;;5.44;90.88
46583;BME280;32309;48.858;8.252;2024-03-17T06:22:35;100962.97;;;5.38;91.87
46583;BME280;32309;48.858;8.252;2024-03-17T06:24:35;100961.19;;;5.42;91.75
46583;BME280;32309;48.858;8.252;2024-03-17T06:26:37;100968.16;;;5.37;92.02
46583;BME280;32309;48.858;8.252;2024-03-17T06:28:38;100962.19;;;5.36;92.15
46583;BME280;32309;48.858;8.252;2024-03-17T06:30:38;100964.59;;;5.44;94.08
46583;BME280;32309;48.858;8.252;2024-03-17T06:32:38;100960.81;;;5.57;92.06
46583;BME280;32309;48.858;8.252;2024-03-17T06:34:38;100954.56;;;5.68;92.57
46583;BME280;32309;48.858;8.252;2024-03-17T06:36:39;100955.25;;;5.73;91.30
46583;BME280;32309;48.858;8.252;2024-03-17T06:38:39;100956.03;;;5.76;92.50
46583;BME280;32309;48.858;8.252;2024-03-17T06:40:40;100952.63;;;5.76;91.53
46583;BME280;32309;48.858;8.252;2024-03-17T06:42:40;100953.44;;;5.76;93.49
46583;BME280;32309;48.858;8.252;2024-03-17T06:44:41;100961.09;;;5.79;93.33
46583;BME280;32309;48.858;8.252;2024-03-17T06:46:41;100960.97;;;5.84;91.75
46583;BME280;32309;48.858;8.252;2024-03-17T06:48:42;100964.22;;;5.91;92.66
46583;BME280;32309;48.858;8.252;2024-03-17T06:50:42;100953.03;;;5.92;92.32
46583;BME280;32309;48.858;8.252;2024-03-17T06:52:44;100959.88;;;5.93;92.26
46583;BME280;32309;48.858;8.252;2024-03-17T06:54:46;100963.25;;;5.95;93.08
46583;BME280;32309;48.858;8.252;2024-03-17T06:56:49;100961.53;;;5.95;93.03
46583;BME280;32309;48.858;8.252;2024-03-17T06:58:51;100960.72;;;5.93;93.31
46583;BME280;32309;48.858;8.252;2024-03-17T07:00:52;100958.91;;;5.98;93.60
46583;BME280;32309;48.858;8.252;2024-03-17T07:03:01;100959.66;;;6.02;93.73
46583;BME280;32309;48.858;8.252;2024-03-17T07:05:02;100962.97;;;6.06;94.74
46583;BME280;32309;48.858;8.252;2024-03-17T07:07:02;100960.38;;;6.07;94.79
46583;BME280;32309;48.858;8.252;2024-03-17T07:09:03;100963.69;;;6.12;95.08
46583;BME280;32309;48.858;8.252;2024-03-17T07:11:04;100954.84;;;6.21;95.06
46583;BME280;32309;48.858;8.252;2024-03-17T07:13:05;100959.66;;;6.32;94.59
46583;BME280;32309;48.858;8.252;2024-03-17T07:15:06;100961.16;;;6.41;94.74
46583;BME280;32309;48.858;8.252;2024-03-17T07:17:06;100958.34;;;6.48;94.87
46583;BME280;32309;48.858;8.252;2024-03-17T07:19:07;100954.69;;;6.56;94.50
46583;BME280;32309;48.858;8.252;2024-03-17T07:21:07;100960.59;;;6.59;94.13
46583;BME280;32309;48.858;8.252;2024-03-17T07:23:10;100960.59;;;6.59;95.31
46583;BME280;32309;48.858;8.252;2024-03-17T07:25:10;100954.69;;;6.56;95.84
46583;BME280;32309;48.858;8.252;2024-03-17T07:27:12;100956.44;;;6.55;95.19
46583;BME280;32309;48.858;8.252;2024-03-17T07:29:14;100958.13;;;6.56;95.80
46583;BME280;32309;48.858;8.252;2024-03-17T07:31:15;100957.97;;;6.61;95.98
46583;BME280;32309;48.858;8.252;2024-03-17T07:33:15;100956.06;;;6.68;95.59
46583;BME280;32309;48.858;8.252;2024-03-17T07:35:16;100961.19;;;6.69;95.48
46583;BME280;32309;48.858;8.252;2024-03-17T07:37:16;100954.22;;;6.71;96.62
46583;BME280;32309;48.858;8.252;2024-03-17T07:39:17;100955.75;;;6.78;95.96
46583;BME280;32309;48.858;8.252;2024-03-17T07:41:21;100963.28;;;6.85;96.34
46583;BME280;32309;48.858;8.252;2024-03-17T07:43:24;100951.09;;;6.90;95.82
46583;BME280;32309;48.858;8.252;2024-03-17T07:45:25;100955.34;;;6.91;96.23
46583;BME280;32309;48.858;8.252;2024-03-17T07:47:25;100956.94;;;6.95;96.38
46583;BME280;32309;48.858;8.252;2024-03-17T07:49:25;100954.19;;;7.01;96.24
46583;BME280;32309;48.858;8.252;2024-03-17T07:51:26;100955.78;;;7.05;95.91
46583;BME280;32309;48.858;8.252;2024-03-17T07:53:29;100963.31;;;7.11;96.43
46583;BME280;32309;48.858;8.252;2024-03-17T07:55:30;100955.41;;;7.16;95.82
46583;BME280;32309;48.858;8.252;2024-03-17T07:57:34;100955.53;;;7.13;96.23
46583;BME280;32309;48.858;8.252;2024-03-17T07:59:40;100950.38;;;7.13;96.09
46583;BME280;32309;48.858;8.252;2024-03-17T08:01:48;100956.25;;;7.16;96.47
46583;BME280;32309;48.858;8.252;2024-03-17T08:03:50;100951.78;;;7.23;96.42
46583;BME280;32309;48.858;8.252;2024-03-17T08:05:58;100953.47;;;7.23;95.77
46583;BME280;32309;48.858;8.252;2024-03-17T08:08:00;100953.53;;;7.21;96.23
46583;BME280;32309;48.858;8.252;2024-03-17T08:10:02;100951.78;;;7.22;96.34
46583;BME280;32309;48.858;8.252;2024-03-17T08:12:02;100955.28;;;7.21;96.97
46583;BME280;32309;48.858;8.252;2024-03-17T08:14:04;100955.94;;;7.27;96.29
46583;BME280;32309;48.858;8.252;2024-03-17T08:16:13;100955.88;;;7.29;96.08
46583;BME280;32309;48.858;8.252;2024-03-17T08:18:20;100956.88;;;7.25;96.32
46583;BME280;32309;48.858;8.252;2024-03-17T08:20:21;100959.34;;;7.28;95.82
46583;BME280;32309;48.858;8.252;2024-03-17T08:22:27;100952.53;;;7.25;96.03
46583;BME280;32309;48.858;8.252;2024-03-17T08:24:28;100953.25;;;7.30;96.17
46583;BME280;32309;48.858;8.252;2024-03-17T08:26:28;100952.34;;;7.31;96.38
46583;BME280;32309;48.858;8.252;2024-03-17T08:28:32;100945.38;;;7.33;96.33
46583;BME280;32309;48.858;8.252;2024-03-17T08:30:32;100943.63;;;7.36;96.52
46583;BME280;32309;48.858;8.252;2024-03-17T08:32:34;100957.25;;;7.39;96.61
46583;BME280;32309;48.858;8.252;2024-03-17T08:34:40;100946.84;;;7.42;96.34
46583;BME280;32309;48.858;8.252;2024-03-17T08:36:40;100952.69;;;7.47;96.67
46583;BME280;32309;48.858;8.252;2024-03-17T08:38:41;100951.53;;;7.56;96.37
46583;BME280;32309;48.858;8.252;2024-03-17T08:40:41;100957.34;;;7.61;95.93
46583;BME280;32309;48.858;8.252;2024-03-17T08:42:45;100945.13;;;7.68;95.94
46583;BME280;32309;48.858;8.252;2024-03-17T08:44:48;100948.41;;;7.72;95.94
46583;BME280;32309;48.858;8.252;2024-03-17T08:46:48;100941.47;;;7.74;95.53
46583;BME280;32309;48.858;8.252;2024-03-17T08:48:48;100940.41;;;7.79;95.43
46583;BME280;32309;48.858;8.252;2024-03-17T08:50:56;100945.50;;;7.81;95.49
46583;BME280;32309;48.858;8.252;2024-03-17T08:52:57;100945.34;;;7.86;95.24
46583;BME280;32309;48.858;8.252;2024-03-17T08:54:58;100939.13;;;7.91;95.49
46583;BME280;32309;48.858;8.252;2024-03-17T08:56:58;100935.38;;;8.00;94.99
46583;BME280;32309;48.858;8.252;2024-03-17T08:58:58;100931.00;;;8.02;94.91
46583;BME280;32309;48.858;8.252;2024-03-17T09:01:02;100931.78;;;8.04;94.62
46583;BME280;32309;48.858;8.252;2024-03-17T09:03:03;100923.91;;;8.07;94.56
46583;BME280;32309;48.858;8.252;2024-03-17T09:05:04;100932.47;;;8.09;94.83
46583;BME280;32309;48.858;8.252;2024-03-17T09:07:04;100934.03;;;8.13;94.93
46583;BME280;32309;48.858;8.252;2024-03-17T09:09:05;100934.88;;;8.14;94.94
46583;BME280;32309;48.858;8.252;2024-03-17T09:11:11;100939.00;;;8.18;94.86
46583;BME280;32309;48.858;8.252;2024-03-17T09:13:13;100939.75;;;8.22;94.60
46583;BME280;32309;48.858;8.252;2024-03-17T09:15:15;100944.84;;;8.23;95.09
46583;BME280;32309;48.858;8.252;2024-03-17T09:17:15;100944.75;;;8.26;94.77
46583;BME280;32309;48.858;8.252;2024-03-17T09:19:16;100948.84;;;8.32;94.52
46583;BME280;32309;48.858;8.252;2024-03-17T09:21:16;100946.81;;;8.40;94.31
46583;BME280;32309;48.858;8.252;2024-03-17T09:23:17;100937.84;;;8.51;93.83
46583;BME280;32309;48.858;8.252;2024-03-17T09:25:17;100945.09;;;8.64;93.11
46583;BME280;32309;48.858;8.252;2024-03-17T09:27:18;100938.53;;;8.78;92.32
46583;BME280;32309;48.858;8.252;2024-03-17T09:29:20;100931.16;;;8.91;92.43
46583;BME280;32309;48.858;8.252;2024-03-17T09:31:20;100936.72;;;9.02;91.29
46583;BME280;32309;48.858;8.252;2024-03-17T09:33:21;100938.84;;;9.13;90.98
46583;BME280;32309;48.858;8.252;2024-03-17T09:35:22;100941.13;;;9.21;90.70
46583;BME280;32309;48.858;8.252;2024-03-17T09:37:23;100936.59;;;9.26;90.50
46583;BME280;32309;48.858;8.252;2024-03-17T09:39:23;100928.69;;;9.30;91.33
46583;BME280;32309;48.858;8.252;2024-03-17T09:41:24;100932.09;;;9.31;90.25
46583;BME280;32309;48.858;8.252;2024-03-17T09:43:27;100919.94;;;9.33;90.03
46583;BME280;32309;48.858;8.252;2024-03-17T09:45:31;100927.50;;;9.38;91.68
46583;BME280;32309;48.858;8.252;2024-03-17T09:47:33;100907.44;;;9.43;90.52
46583;BME280;32309;48.858;8.252;2024-03-17T09:49:37;100910.53;;;9.51;91.48
46583;BME280;32309;48.858;8.252;2024-03-17T09:51:38;100919.84;;;9.55;89.72
46583;BME280;32309;48.858;8.252;2024-03-17T09:53:39;100920.56;;;9.59;89.62
46583;BME280;32309;48.858;8.252;2024-03-17T09:55:43;100924.00;;;9.59;87.87
46583;BME280;32309;48.858;8.252;2024-03-17T09:57:43;100922.97;;;9.63;87.55
46583;BME280;32309;48.858;8.252;2024-03-17T09:59:49;100924.59;;;9.66;86.23
46583;BME280;32309;48.858;8.252;2024-03-17T10:01:50;100923.53;;;9.70;86.20
46583;BME280;32309;48.858;8.252;2024-03-17T10:03:54;100922.44;;;9.76;85.42
46583;BME280;32309;48.858;8.252;2024-03-17T10:06:10;100929.97;;;9.80;84.54
46583;BME280;32309;48.858;8.252;2024-03-17T10:08:20;100927.28;;;9.83;83.74
46583;BME280;32309;48.858;8.252;2024-03-17T10:10:24;100929.72;;;9.87;83.41
46583;BME280;32309;48.858;8.252;2024-03-17T10:12:28;100939.97;;;9.90;83.90
46583;BME280;32309;48.858;8.252;2024-03-17T10:14:29;100929.59;;;9.90;83.10
46583;BME280;32309;48.858;8.252;2024-03-17T10:16:30;100938.97;;;9.92;83.95
46583;BME280;32309;48.858;8.252;2024-03-17T10:18:31;100931.91;;;9.96;83.60
46583;BME280;32309;48.858;8.252;2024-03-17T10:20:32;100931.72;;;10.01;84.41
46583;BME280;32309;48.858;8.252;2024-03-17T10:22:32;100928.16;;;10.03;83.00
46583;BME280;32309;48.858;8.252;2024-03-17T10:24:33;100931.31;;;10.10;83.41
46583;BME280;32309;48.858;8.252;2024-03-17T10:26:53;100924.38;;;10.10;83.60
46583;BME280;32309;48.858;8.252;2024-03-17T10:28:57;100931.88;;;10.16;83.43
46583;BME280;32309;48.858;8.252;2024-03-17T10:30:58;100929.91;;;10.22;83.10
46583;BME280;32309;48.858;8.252;2024-03-17T10:32:59;100934.03;;;10.26;82.38
46583;BME280;32309;48.858;8.252;2024-03-17T10:35:03;100924.44;;;10.28;83.25
46583;BME280;32309;48.858;8.252;2024-03-17T10:39:27;100925.59;;;10.41;83.94
46583;BME280;32309;48.858;8.252;2024-03-17T10:41:34;100920.97;;;10.48;83.42
46583;BME280;32309;48.858;8.252;2024-03-17T10:43:34;100924.13;;;10.55;83.49
46583;BME280;32309;48.858;8.252;2024-03-17T10:45:36;100917.88;;;10.59;83.26
46583;BME280;32309;48.858;8.252;2024-03-17T10:47:38;100915.00;;;10.65;82.86
46583;BME280;32309;48.858;8.252;2024-03-17T10:49:46;100910.41;;;10.70;81.65